Terminal Aerodrome Forecast
Issued by NWS

Home | Current Version | Previous Version | Text Only | Print | Product List | Glossary On
Versions: 1 2 3 4 5 6 7 8 9 10 11 12 13 14 15 16 17 18 19 20 21 22 23 24 25 26 27 28 29 30
000
FTUS43 KDMX 041740
TAFMCW
TAF
KMCW 041740Z 0418/0518 06014G20KT P6SM FEW150
     FM050000 07010KT P6SM OVC060
     FM051000 07009KT 6SM -SHRA SCT010 OVC035=

USA.gov is the U.S. government's official web portal to all federal, state and local government web resources and services.